Anthony, Texas
Current Conditions -  °F | °C
As of 9:58 PM on Saturday 22 Nov 2014 (Local Time) from KBIF Reporting Station
Clear Clear  
Wind Chill: 60°   Ceiling: Unl
Heat Index: 60°   Visibility: 8mi
Dew Point: 17°   Wind: 25mph
Humidity: 19%   Direction: 270°W
Pressure: 29.89"   Gusts: 32mph
Location:  32°N, 106.61°W
Report Text: KBIF 230458Z AUTO 27022G28KT 8SM CLR 15/M08 A2989 RMK AO2 PK WND 28035/48 SLP078 T01531082 $
Loading
Personal Weather Stations






























Interactive Weather Map New forecast layout! Learn more

10-Day Weather Forecast

Advertisements
Track Severe Weather on mobile